createdAt,value
2022-08-12T00:00:34.785Z,60.70
2022-08-12T00:02:02.644Z,52.10
2022-08-12T00:02:35.753Z,51.42
2022-08-12T00:03:34.815Z,50.93
2022-08-12T00:04:34.738Z,49.14
2022-08-12T00:05:34.733Z,49.14
2022-08-12T00:06:34.731Z,55.29
2022-08-12T00:07:34.730Z,51.19
2022-08-12T00:08:37.021Z,47.78
2022-08-12T00:09:34.700Z,57.38
2022-08-12T00:10:34.692Z,49.23
2022-08-12T00:11:34.687Z,48.85
2022-08-12T00:12:34.738Z,50.20
2022-08-12T00:13:34.659Z,48.51
2022-08-12T00:14:35.658Z,48.91
2022-08-12T00:15:34.651Z,54.18
2022-08-12T00:16:34.648Z,49.06
2022-08-12T00:17:34.658Z,53.05
2022-08-12T00:18:34.629Z,52.41
2022-08-12T00:19:34.625Z,51.65
2022-08-12T00:20:34.616Z,51.33
2022-08-12T00:21:35.859Z,51.81
2022-08-12T00:22:34.682Z,56.47
2022-08-12T00:23:34.591Z,55.95
2022-08-12T00:24:34.588Z,49.90
2022-08-12T00:26:01.392Z,55.27
2022-08-12T00:26:35.563Z,56.58
2022-08-12T00:27:43.978Z,54.90
2022-08-12T00:28:35.558Z,52.62
2022-08-12T00:29:34.553Z,54.71
2022-08-12T00:30:34.544Z,56.47
2022-08-12T00:33:36.501Z,46.13
2022-08-12T00:34:36.451Z,51.69
2022-08-12T00:35:36.789Z,50.49
2022-08-12T00:36:36.392Z,50.68
2022-08-12T00:37:35.442Z,53.92
2022-08-12T00:38:35.413Z,55.66
2022-08-12T00:39:35.490Z,48.37
2022-08-12T00:40:35.393Z,54.27
2022-08-12T00:41:35.387Z,55.22
2022-08-12T00:42:35.393Z,53.65
2022-08-12T00:43:35.370Z,49.30
2022-08-12T00:44:35.373Z,55.68
2022-08-12T00:45:35.365Z,53.11
2022-08-12T00:46:36.450Z,51.54
2022-08-12T00:47:36.444Z,54.66
2022-08-12T00:48:36.415Z,55.35
2022-08-12T00:49:36.411Z,49.09
2022-08-12T00:50:36.417Z,59.67
2022-08-12T00:51:36.402Z,58.14
2022-08-12T00:52:36.387Z,54.14
2022-08-12T00:53:36.387Z,51.85
2022-08-12T00:54:36.375Z,54.13
2022-08-12T00:55:36.382Z,54.94
2022-08-12T00:56:36.360Z,61.51
2022-08-12T00:57:37.326Z,48.63
2022-08-12T00:58:36.340Z,52.68
2022-08-12T00:59:36.330Z,50.48
2022-08-12T01:00:36.334Z,54.98
2022-08-12T01:02:02.422Z,50.05
2022-08-12T01:02:37.310Z,56.12
2022-08-12T01:03:36.300Z,54.05
2022-08-12T01:04:36.300Z,49.78
2022-08-12T01:05:36.294Z,53.72
2022-08-12T01:06:36.279Z,48.08
2022-08-12T01:07:36.265Z,56.11
2022-08-12T01:08:36.248Z,57.75
2022-08-12T01:09:36.251Z,56.06
2022-08-12T01:10:36.244Z,49.48
2022-08-12T01:11:36.234Z,57.87
2022-08-12T01:12:36.217Z,56.71
2022-08-12T01:13:36.207Z,53.00
2022-08-12T01:14:36.207Z,50.17
2022-08-12T01:15:36.193Z,52.00
2022-08-12T01:16:36.190Z,52.12
2022-08-12T01:17:36.188Z,55.33
2022-08-12T01:18:36.180Z,60.45
2022-08-12T01:19:36.827Z,50.86
2022-08-12T01:20:36.162Z,50.99
2022-08-12T01:21:36.147Z,58.41
2022-08-12T01:22:36.137Z,51.58
2022-08-12T01:23:36.142Z,52.35
2022-08-12T01:24:36.134Z,55.98
2022-08-12T01:25:41.052Z,50.99
2022-08-12T01:26:38.109Z,51.80
2022-08-12T01:27:36.098Z,50.85
2022-08-12T01:28:36.085Z,53.43
2022-08-12T01:29:36.075Z,57.67
2022-08-12T01:30:36.073Z,48.07
2022-08-12T01:31:36.071Z,52.85
2022-08-12T01:32:36.065Z,52.02
2022-08-12T01:33:36.039Z,53.85
2022-08-12T01:34:37.397Z,52.32
2022-08-12T01:35:36.032Z,50.21
2022-08-12T01:36:36.037Z,53.32
2022-08-12T01:37:36.027Z,47.52
2022-08-12T01:38:36.000Z,57.97
2022-08-12T01:39:36.038Z,48.26
2022-08-12T01:40:37.866Z,57.33
2022-08-12T01:41:36.995Z,51.13
2022-08-12T01:42:35.977Z,52.35
2022-08-12T01:43:35.967Z,56.84
2022-08-12T01:44:35.958Z,55.90
2022-08-12T01:45:40.666Z,49.53
2022-08-12T01:46:36.945Z,53.53
2022-08-12T01:47:35.945Z,51.43
2022-08-12T01:48:35.910Z,47.65
2022-08-12T01:49:35.912Z,55.01
2022-08-12T01:50:35.912Z,56.26
2022-08-12T01:52:15.305Z,49.33
2022-08-12T01:52:36.888Z,54.53
2022-08-12T01:53:50.760Z,52.94
2022-08-12T01:54:36.869Z,51.98
2022-08-12T01:55:35.877Z,50.44
2022-08-12T01:56:35.850Z,50.86
2022-08-12T01:57:57.740Z,60.88
2022-08-12T01:58:36.844Z,52.02
2022-08-12T01:59:35.826Z,51.27
2022-08-12T02:00:43.333Z,53.61
2022-08-12T02:01:36.841Z,58.82
2022-08-12T02:02:35.854Z,51.01
2022-08-12T02:03:35.810Z,53.22
2022-08-12T02:04:35.794Z,55.63
2022-08-12T02:05:35.782Z,55.82
2022-08-12T02:06:35.776Z,48.79
2022-08-12T02:07:35.770Z,52.45
2022-08-12T02:08:35.766Z,47.50
2022-08-12T02:09:35.780Z,58.12
2022-08-12T02:10:50.314Z,52.79
2022-08-12T02:11:36.749Z,58.12
2022-08-12T02:12:35.729Z,54.72
2022-08-12T02:13:48.522Z,53.75
2022-08-12T02:14:38.422Z,46.43
2022-08-12T02:15:35.704Z,54.33
2022-08-12T02:16:35.703Z,54.05
2022-08-12T02:17:55.852Z,50.25
2022-08-12T02:18:36.690Z,50.26
2022-08-12T02:19:35.687Z,53.77
2022-08-12T02:20:50.882Z,53.66
2022-08-12T02:21:36.659Z,49.96
2022-08-12T02:22:35.647Z,55.32
2022-08-12T02:23:35.636Z,55.72
2022-08-12T02:24:35.639Z,51.31
2022-08-12T02:25:35.630Z,48.01
2022-08-12T02:26:35.620Z,53.81
2022-08-12T02:27:35.625Z,50.36
2022-08-12T02:28:35.609Z,51.21
2022-08-12T02:29:35.600Z,52.20
2022-08-12T02:30:41.586Z,51.76
2022-08-12T02:31:36.583Z,50.02
2022-08-12T02:32:35.598Z,49.65
2022-08-12T02:33:35.559Z,54.29
2022-08-12T02:34:35.551Z,55.24
2022-08-12T02:35:35.549Z,55.79
2022-08-12T02:36:35.533Z,52.69
2022-08-12T02:37:35.531Z,55.27
2022-08-12T02:38:35.511Z,56.00
2022-08-12T02:39:35.567Z,58.34
2022-08-12T02:40:35.501Z,54.69
2022-08-12T02:41:35.489Z,53.83
2022-08-12T02:42:35.545Z,57.06
2022-08-12T02:43:35.471Z,56.26
2022-08-12T02:44:35.463Z,58.03
2022-08-12T02:45:35.458Z,53.34
2022-08-12T02:46:35.449Z,50.29
2022-08-12T02:48:00.048Z,54.89
2022-08-12T02:48:36.474Z,53.57
2022-08-12T02:49:35.434Z,54.06
2022-08-12T02:50:35.428Z,60.25
2022-08-12T02:51:35.419Z,51.52
2022-08-12T02:52:35.522Z,56.18
2022-08-12T02:53:36.969Z,58.99
2022-08-12T02:54:35.386Z,55.25
2022-08-12T02:55:35.388Z,58.88
2022-08-12T02:56:35.385Z,54.58
2022-08-12T02:57:35.373Z,53.56
2022-08-12T02:58:35.371Z,52.08
2022-08-12T02:59:35.352Z,54.90
2022-08-12T03:00:35.336Z,54.94
2022-08-12T03:01:35.414Z,54.16
2022-08-12T03:02:36.325Z,52.84
2022-08-12T03:03:35.326Z,58.72
2022-08-12T03:04:37.894Z,56.93
2022-08-12T03:05:38.430Z,58.05
2022-08-12T03:06:36.291Z,59.64
2022-08-12T03:07:56.463Z,61.63
2022-08-12T03:08:36.273Z,58.46
2022-08-12T03:10:03.806Z,57.83
2022-08-12T03:10:37.509Z,60.15
2022-08-12T03:11:37.744Z,58.93
2022-08-12T03:12:35.350Z,57.81
2022-08-12T03:13:36.221Z,57.60
2022-08-12T03:14:35.231Z,57.20
2022-08-12T03:15:35.221Z,58.99
2022-08-12T03:16:36.922Z,59.18
2022-08-12T03:17:35.202Z,55.04
2022-08-12T03:18:35.862Z,57.88
2022-08-12T03:19:35.182Z,60.41
2022-08-12T03:20:35.183Z,64.79
2022-08-12T03:21:55.369Z,57.72
2022-08-12T03:22:36.157Z,59.67
2022-08-12T03:23:35.142Z,58.60
2022-08-12T03:24:35.139Z,56.01
2022-08-12T03:25:35.137Z,60.83
2022-08-12T03:26:35.123Z,58.58
2022-08-12T03:27:35.130Z,58.36
2022-08-12T03:28:35.873Z,61.61
2022-08-12T03:29:50.162Z,59.97
2022-08-12T03:30:36.097Z,61.31
2022-08-12T03:31:35.182Z,56.74
2022-08-12T03:32:36.697Z,59.79
2022-08-12T03:33:35.069Z,59.91
2022-08-12T03:34:35.068Z,64.14
2022-08-12T03:35:40.245Z,59.28
2022-08-12T03:36:36.187Z,62.63
2022-08-12T03:37:35.055Z,62.35
2022-08-12T03:38:35.027Z,62.51
2022-08-12T03:39:36.158Z,61.82
2022-08-12T03:40:35.014Z,59.13
2022-08-12T03:41:35.020Z,59.16
2022-08-12T03:42:35.009Z,56.16
2022-08-12T03:43:35.003Z,57.00
2022-08-12T03:44:34.977Z,59.00
2022-08-12T03:45:34.962Z,60.01
2022-08-12T03:46:35.973Z,63.22
2022-08-12T03:47:34.967Z,58.71
2022-08-12T03:48:34.977Z,61.01
2022-08-12T03:49:34.949Z,62.30
2022-08-12T03:50:34.926Z,61.37
2022-08-12T03:51:34.911Z,60.14
2022-08-12T03:52:34.943Z,63.67
2022-08-12T03:53:34.906Z,60.30
2022-08-12T03:54:38.234Z,60.99
2022-08-12T03:55:35.881Z,62.93
2022-08-12T03:56:34.882Z,61.51
2022-08-12T03:57:34.892Z,62.76
2022-08-12T03:58:34.859Z,61.26
2022-08-12T03:59:34.860Z,59.83
2022-08-12T04:00:34.889Z,62.30
2022-08-12T04:01:40.753Z,60.66
2022-08-12T04:02:35.830Z,66.14
2022-08-12T04:03:34.827Z,59.53
2022-08-12T04:04:34.912Z,59.70
2022-08-12T04:05:56.227Z,60.62
2022-08-12T04:06:36.070Z,62.21
2022-08-12T04:07:34.805Z,60.89
2022-08-12T04:08:34.777Z,57.48
2022-08-12T04:09:34.772Z,62.18
2022-08-12T04:10:34.772Z,64.83
2022-08-12T04:11:34.755Z,58.85
2022-08-12T04:12:35.785Z,60.28
2022-08-12T04:13:34.744Z,57.74
2022-08-12T04:14:34.745Z,57.38
2022-08-12T04:15:34.718Z,59.98
2022-08-12T04:16:34.720Z,61.99
2022-08-12T04:17:34.735Z,62.61
2022-08-12T04:18:34.696Z,62.59
2022-08-12T04:19:34.701Z,55.32
2022-08-12T04:20:34.682Z,63.22
2022-08-12T04:21:34.695Z,64.14
2022-08-12T04:22:34.702Z,63.80
2022-08-12T04:23:34.655Z,62.00
2022-08-12T04:24:35.407Z,66.41
2022-08-12T04:25:34.637Z,64.23
2022-08-12T04:26:34.629Z,63.39
2022-08-12T04:27:34.648Z,62.70
2022-08-12T04:28:34.633Z,61.25
2022-08-12T04:30:21.459Z,60.76
2022-08-12T04:30:35.596Z,63.86
2022-08-12T04:31:34.606Z,61.47
2022-08-12T04:32:34.595Z,62.89
2022-08-12T04:33:34.583Z,64.44
2022-08-12T04:34:34.567Z,62.38
2022-08-12T04:35:35.381Z,65.63
2022-08-12T04:36:34.552Z,63.70
2022-08-12T04:37:59.045Z,62.27
2022-08-12T04:38:35.537Z,59.11
2022-08-12T04:39:34.591Z,61.46
2022-08-12T04:40:34.512Z,60.50
2022-08-12T04:41:34.502Z,62.03
2022-08-12T04:42:34.499Z,61.74
2022-08-12T04:44:00.724Z,62.20
2022-08-12T04:44:35.487Z,60.71
2022-08-12T04:45:34.473Z,63.75
2022-08-12T04:46:34.802Z,63.97
2022-08-12T04:47:34.458Z,61.40
2022-08-12T04:48:34.457Z,64.46
2022-08-12T04:49:34.448Z,64.07
2022-08-12T04:50:37.053Z,61.98
2022-08-12T04:51:34.418Z,62.45
2022-08-12T04:52:35.021Z,63.11
2022-08-12T04:53:35.415Z,61.79
2022-08-12T04:54:34.403Z,65.28
2022-08-12T04:55:34.443Z,65.55
2022-08-12T04:56:35.655Z,64.03
2022-08-12T04:57:34.390Z,64.05
2022-08-12T04:58:34.375Z,60.84
2022-08-12T04:59:47.809Z,61.61
2022-08-12T05:00:35.352Z,62.11
2022-08-12T05:01:34.361Z,62.34
2022-08-12T05:02:34.493Z,62.21
2022-08-12T05:03:45.912Z,62.91
2022-08-12T05:04:35.359Z,67.39
2022-08-12T05:05:36.258Z,61.88
2022-08-12T05:06:35.307Z,62.05
2022-08-12T05:07:34.313Z,61.96
2022-08-12T05:08:35.297Z,62.39
2022-08-12T05:09:58.840Z,63.76
2022-08-12T05:10:36.039Z,65.49
2022-08-12T05:11:34.267Z,59.64
2022-08-12T05:12:34.308Z,61.04
2022-08-12T05:13:34.246Z,60.61
2022-08-12T05:14:37.489Z,61.81
2022-08-12T05:15:36.033Z,62.86
2022-08-12T05:16:36.187Z,60.20
2022-08-12T05:17:34.221Z,67.83
2022-08-12T05:18:35.090Z,65.25
2022-08-12T05:19:35.210Z,62.73
2022-08-12T05:20:34.199Z,63.48
2022-08-12T05:21:34.180Z,66.32
2022-08-12T05:22:36.954Z,62.37
2022-08-12T05:23:34.165Z,61.84
2022-08-12T05:24:34.159Z,65.81
2022-08-12T05:25:34.157Z,65.42
2022-08-12T05:26:34.133Z,65.22
2022-08-12T05:27:34.137Z,63.17
2022-08-12T05:28:34.127Z,61.76
2022-08-12T05:30:07.165Z,60.99
2022-08-12T05:30:35.107Z,63.83
2022-08-12T05:31:45.536Z,62.13
2022-08-12T05:32:35.092Z,63.63
2022-08-12T05:33:34.077Z,61.05
2022-08-12T05:34:34.082Z,61.23
2022-08-12T05:35:34.073Z,63.44
2022-08-12T05:36:34.057Z,66.80
2022-08-12T05:37:34.063Z,65.74
2022-08-12T05:38:34.044Z,64.06
2022-08-12T05:39:34.047Z,62.85
2022-08-12T05:40:34.026Z,62.37
2022-08-12T05:41:34.017Z,61.73
2022-08-12T05:42:34.674Z,61.61
2022-08-12T05:43:34.004Z,64.11
2022-08-12T05:44:33.999Z,65.13
2022-08-12T05:45:33.996Z,63.72
2022-08-12T05:46:33.998Z,62.88
2022-08-12T05:47:42.768Z,60.50
2022-08-12T05:48:34.971Z,65.99
2022-08-12T05:49:34.994Z,63.09
2022-08-12T05:50:33.950Z,61.80
2022-08-12T05:51:40.129Z,64.49
2022-08-12T05:52:35.029Z,62.85
2022-08-12T05:53:33.927Z,64.05
2022-08-12T05:54:56.185Z,61.55
2022-08-12T05:55:35.938Z,63.59
2022-08-12T05:56:33.895Z,63.50
2022-08-12T05:57:33.897Z,62.82
2022-08-12T05:58:33.881Z,63.25
2022-08-12T05:59:33.879Z,60.82
2022-08-12T06:00:33.864Z,65.71
2022-08-12T06:02:10.686Z,61.12
2022-08-12T06:02:34.863Z,62.65
2022-08-12T06:03:33.957Z,61.58
2022-08-12T06:04:33.832Z,60.79
2022-08-12T06:05:33.821Z,63.57
2022-08-12T06:06:39.125Z,64.96
2022-08-12T06:07:59.630Z,60.97
2022-08-12T06:08:34.800Z,62.51
2022-08-12T06:09:33.792Z,61.48
2022-08-12T06:10:33.815Z,63.86
2022-08-12T06:11:34.492Z,61.07
2022-08-12T06:12:33.774Z,64.85
2022-08-12T06:13:54.339Z,68.81
2022-08-12T06:14:34.758Z,63.21
2022-08-12T06:15:33.751Z,61.92
2022-08-12T06:16:33.733Z,64.31
2022-08-12T06:17:33.753Z,63.76
2022-08-12T06:18:33.728Z,67.19
2022-08-12T06:20:28.036Z,65.58
2022-08-12T06:20:34.753Z,64.70
2022-08-12T06:21:33.707Z,65.88
2022-08-12T06:22:33.688Z,63.61
2022-08-12T06:23:33.687Z,63.99
2022-08-12T06:24:33.672Z,66.20
2022-08-12T06:25:33.670Z,63.29
2022-08-12T06:26:33.657Z,62.29
2022-08-12T06:27:33.681Z,61.05
2022-08-12T06:28:33.642Z,61.27
2022-08-12T06:30:07.273Z,63.36
2022-08-12T06:30:38.069Z,64.38
2022-08-12T06:31:34.634Z,65.19
2022-08-12T06:32:34.618Z,64.07
2022-08-12T06:33:55.073Z,62.85
2022-08-12T06:35:24.027Z,62.10
2022-08-12T06:35:48.438Z,63.41
2022-08-12T06:36:34.590Z,63.78
2022-08-12T06:37:33.567Z,61.38
2022-08-12T06:38:33.620Z,62.68
2022-08-12T06:39:33.636Z,63.97
2022-08-12T06:40:33.624Z,60.63
2022-08-12T06:41:33.536Z,63.30
2022-08-12T06:42:33.675Z,62.52
2022-08-12T06:44:06.864Z,62.66
2022-08-12T06:44:34.555Z,60.44
2022-08-12T06:45:45.222Z,62.01
2022-08-12T06:46:34.504Z,60.11
2022-08-12T06:47:33.486Z,61.22
2022-08-12T06:48:33.479Z,62.39
2022-08-12T06:49:33.538Z,63.43
2022-08-12T06:50:38.109Z,61.64
2022-08-12T06:51:33.472Z,65.85
2022-08-12T06:52:33.462Z,64.97
2022-08-12T06:53:34.021Z,63.16
2022-08-12T06:54:33.446Z,66.48
2022-08-12T06:55:33.432Z,67.48
2022-08-12T06:57:02.937Z,67.22
2022-08-12T06:58:05.262Z,63.53
2022-08-12T06:58:34.454Z,63.09
2022-08-12T06:59:33.404Z,64.27
2022-08-12T07:00:33.494Z,65.04
2022-08-12T07:01:33.493Z,64.03
2022-08-12T07:02:36.877Z,63.51
2022-08-12T07:03:34.366Z,62.29
2022-08-12T07:04:37.876Z,64.75
2022-08-12T07:05:35.374Z,67.19
2022-08-12T07:06:33.333Z,61.37
2022-08-12T07:07:33.330Z,62.63
2022-08-12T07:08:33.321Z,61.67
2022-08-12T07:10:05.528Z,60.20
2022-08-12T07:10:34.315Z,60.59
2022-08-12T07:11:33.296Z,61.35
2022-08-12T07:12:33.293Z,61.48
2022-08-12T07:13:33.277Z,62.82
2022-08-12T07:14:35.411Z,64.89
2022-08-12T07:15:34.269Z,62.64
2022-08-12T07:16:33.263Z,63.87
2022-08-12T07:17:33.269Z,64.69
2022-08-12T07:18:33.232Z,64.88
2022-08-12T07:19:40.686Z,63.33
2022-08-12T07:20:51.744Z,64.51
2022-08-12T07:22:00.014Z,64.74
2022-08-12T07:22:34.211Z,64.48
2022-08-12T07:23:33.196Z,61.00
2022-08-12T07:24:33.196Z,61.43
2022-08-12T07:25:37.403Z,60.52
2022-08-12T07:26:34.181Z,62.62
2022-08-12T07:27:33.183Z,63.20
2022-08-12T07:28:33.163Z,64.62
2022-08-12T07:29:58.125Z,63.91
2022-08-12T07:30:34.170Z,66.14
2022-08-12T07:31:34.028Z,62.20
2022-08-12T07:32:33.119Z,62.27
2022-08-12T07:33:33.113Z,61.54
2022-08-12T07:34:33.146Z,61.14
2022-08-12T07:35:33.144Z,63.60
2022-08-12T07:36:33.087Z,63.75
2022-08-12T07:37:33.098Z,63.20
2022-08-12T07:38:33.110Z,61.46
2022-08-12T07:39:33.117Z,62.06
2022-08-12T07:40:33.067Z,60.81
2022-08-12T07:41:33.055Z,61.40
2022-08-12T07:42:33.040Z,60.10
2022-08-12T07:43:33.036Z,62.22
2022-08-12T07:44:33.013Z,61.12
2022-08-12T07:45:34.039Z,59.72
2022-08-12T07:46:33.554Z,63.49
2022-08-12T07:47:33.029Z,62.79
2022-08-12T07:48:32.989Z,61.43
2022-08-12T07:49:33.004Z,62.33
2022-08-12T07:50:33.984Z,62.76
2022-08-12T07:51:32.999Z,63.99
2022-08-12T07:52:32.979Z,63.74
2022-08-12T07:53:32.948Z,63.24
2022-08-12T07:54:33.943Z,63.32
2022-08-12T07:55:32.956Z,63.61
2022-08-12T07:56:32.941Z,63.44
2022-08-12T07:57:32.951Z,62.84
2022-08-12T07:58:32.913Z,64.24
2022-08-12T07:59:32.908Z,64.80
2022-08-12T08:00:32.920Z,64.33
2022-08-12T08:01:33.003Z,62.29
2022-08-12T08:02:32.884Z,68.57
2022-08-12T08:03:32.911Z,66.65
2022-08-12T08:04:32.872Z,64.21
2022-08-12T08:05:32.870Z,62.68
2022-08-12T08:06:32.855Z,64.71
2022-08-12T08:07:32.861Z,62.01
2022-08-12T08:08:32.859Z,63.01
2022-08-12T08:09:32.832Z,62.47
2022-08-12T08:10:32.818Z,59.73
2022-08-12T08:11:32.823Z,60.48
2022-08-12T08:12:32.811Z,60.72
2022-08-12T08:13:32.838Z,66.86
2022-08-12T08:14:32.811Z,63.30
2022-08-12T08:16:02.902Z,65.64
2022-08-12T08:16:34.775Z,65.71
2022-08-12T08:17:32.775Z,61.47
2022-08-12T08:18:33.768Z,64.12
2022-08-12T08:19:32.751Z,63.09
2022-08-12T08:20:32.751Z,63.68
2022-08-12T08:21:32.740Z,62.54
2022-08-12T08:22:41.511Z,67.08
2022-08-12T08:23:35.160Z,67.92
2022-08-12T08:24:32.711Z,68.56
2022-08-12T08:25:36.145Z,66.16
2022-08-12T08:26:32.706Z,60.96
2022-08-12T08:27:32.710Z,63.42
2022-08-12T08:28:33.476Z,60.92
2022-08-12T08:29:32.667Z,64.54
2022-08-12T08:30:32.684Z,65.40
2022-08-12T08:31:32.672Z,62.15
2022-08-12T08:32:32.647Z,62.67
2022-08-12T08:34:05.038Z,62.24
2022-08-12T08:34:53.997Z,64.41
2022-08-12T08:35:46.455Z,68.16
2022-08-12T08:36:33.623Z,68.44
2022-08-12T08:37:33.444Z,67.77
2022-08-12T08:38:35.369Z,66.92
2022-08-12T08:39:33.656Z,66.46
2022-08-12T08:40:32.580Z,61.77
2022-08-12T08:42:16.101Z,61.68
2022-08-12T08:42:33.588Z,62.40
2022-08-12T08:43:44.250Z,61.06
2022-08-12T08:44:33.546Z,62.11
2022-08-12T08:45:32.537Z,60.39
2022-08-12T08:46:32.551Z,60.10
2022-08-12T08:47:32.547Z,61.39
2022-08-12T08:48:32.520Z,61.96
2022-08-12T08:49:32.511Z,63.00
2022-08-12T08:50:32.505Z,64.65
2022-08-12T08:51:32.502Z,64.44
2022-08-12T08:52:39.732Z,62.80
2022-08-12T08:53:33.498Z,63.73
2022-08-12T08:54:32.474Z,64.16
2022-08-12T08:56:01.307Z,63.08
2022-08-12T08:56:34.476Z,66.04
2022-08-12T08:57:44.080Z,65.27
2022-08-12T08:58:34.455Z,63.48
2022-08-12T08:59:32.444Z,63.90
2022-08-12T09:00:32.438Z,65.81
2022-08-12T09:01:37.888Z,64.81
2022-08-12T09:02:34.064Z,62.21
2022-08-12T09:05:08.301Z,63.97
2022-08-12T09:05:12.245Z,63.71
2022-08-12T09:06:01.484Z,64.77
2022-08-12T09:06:37.917Z,65.99
2022-08-12T09:07:51.628Z,63.66
2022-08-12T09:08:33.417Z,63.12
2022-08-12T09:10:01.397Z,62.77
2022-08-12T09:10:33.353Z,61.76
2022-08-12T09:12:07.198Z,61.77
2022-08-12T09:12:33.345Z,61.96
2022-08-12T09:14:10.906Z,60.98
2022-08-12T09:14:33.330Z,63.14
2022-08-12T09:15:35.683Z,62.04
2022-08-12T09:16:32.837Z,61.82
2022-08-12T09:17:42.795Z,62.74
2022-08-12T09:18:34.070Z,62.48
2022-08-12T09:19:32.284Z,64.35
2022-08-12T09:20:32.331Z,64.95
2022-08-12T09:21:54.779Z,66.09
2022-08-12T09:22:35.138Z,63.13
2022-08-12T09:23:59.871Z,64.23
2022-08-12T09:24:33.240Z,62.82
2022-08-12T09:26:45.940Z,64.03
2022-08-12T09:28:04.366Z,63.38
2022-08-12T09:28:33.223Z,64.74
2022-08-12T09:30:11.581Z,64.23
2022-08-12T09:30:42.292Z,63.84
2022-08-12T09:32:03.728Z,62.59
2022-08-12T09:33:04.379Z,62.60
2022-08-12T09:34:25.591Z,63.73
2022-08-12T09:34:34.045Z,64.47
2022-08-12T09:35:33.179Z,61.94
2022-08-12T09:36:57.827Z,66.14
2022-08-12T09:37:57.989Z,65.39
2022-08-12T09:38:33.134Z,66.34
2022-08-12T09:40:05.678Z,63.01
2022-08-12T09:40:57.288Z,65.83
2022-08-12T09:42:09.703Z,63.16
2022-08-12T09:42:43.434Z,64.02
2022-08-12T09:43:33.149Z,67.27
2022-08-12T09:44:38.886Z,67.29
2022-08-12T09:46:11.176Z,67.27
2022-08-12T09:46:34.560Z,65.51
2022-08-12T09:47:33.447Z,65.76
2022-08-12T09:48:34.988Z,66.30
2022-08-12T09:49:32.052Z,65.51
2022-08-12T09:50:32.046Z,67.20
2022-08-12T09:51:37.646Z,63.83
2022-08-12T09:52:33.033Z,62.48
2022-08-12T09:54:33.713Z,65.82
2022-08-12T09:54:35.449Z,62.34
2022-08-12T09:56:05.696Z,63.57
2022-08-12T09:56:58.682Z,62.32
2022-08-12T09:58:46.933Z,63.48
2022-08-12T09:58:57.854Z,67.42
2022-08-12T10:00:17.382Z,65.12
2022-08-12T10:00:43.269Z,66.33
2022-08-12T10:01:35.380Z,64.19
2022-08-12T10:02:43.054Z,62.93
2022-08-12T10:03:33.255Z,64.63
2022-08-12T10:04:31.989Z,64.46
2022-08-12T10:06:26.194Z,63.84
2022-08-12T10:06:36.321Z,64.80
2022-08-12T10:07:40.082Z,61.73
2022-08-12T10:08:32.890Z,63.33
2022-08-12T10:09:58.071Z,63.35
2022-08-12T10:10:32.887Z,61.70
2022-08-12T10:12:10.443Z,62.83
2022-08-12T10:12:33.669Z,63.34
2022-08-12T10:13:36.874Z,62.85
2022-08-12T10:14:34.385Z,64.28
2022-08-12T10:16:02.144Z,64.33
2022-08-12T10:16:39.169Z,63.24
2022-08-12T10:17:33.822Z,64.06
2022-08-12T10:18:51.848Z,64.59
2022-08-12T10:19:36.370Z,64.35
2022-08-12T10:20:35.542Z,63.48
2022-08-12T10:21:36.517Z,62.87
2022-08-12T10:22:36.669Z,64.18
2022-08-12T10:23:39.317Z,63.08
2022-08-12T10:24:32.766Z,65.18
2022-08-12T10:26:33.985Z,62.32
2022-08-12T10:26:37.309Z,64.17
2022-08-12T10:28:04.062Z,66.03
2022-08-12T10:28:32.742Z,63.97
2022-08-12T10:30:01.285Z,64.58
2022-08-12T10:30:39.929Z,65.52
2022-08-12T10:31:46.864Z,63.62
2022-08-12T10:32:45.135Z,64.55
2022-08-12T10:33:32.698Z,64.46
2022-08-12T10:34:32.681Z,64.44
2022-08-12T10:35:38.313Z,64.51
2022-08-12T10:36:39.898Z,66.45
2022-08-12T10:38:34.847Z,60.91
2022-08-12T10:38:41.092Z,63.84
2022-08-12T10:40:02.817Z,64.17
2022-08-12T10:40:37.707Z,64.98
2022-08-12T10:41:58.786Z,62.38
2022-08-12T10:42:32.626Z,67.23
2022-08-12T10:43:55.237Z,62.64
2022-08-12T10:44:32.612Z,62.05
2022-08-12T10:45:31.624Z,62.25
2022-08-12T10:46:32.056Z,65.08
2022-08-12T10:48:19.638Z,63.40
2022-08-12T10:48:34.788Z,65.60
2022-08-12T10:50:02.793Z,66.44
2022-08-12T10:51:01.465Z,64.53
2022-08-12T10:52:04.853Z,64.27
2022-08-12T10:52:37.931Z,62.72
2022-08-12T10:53:45.018Z,63.19
2022-08-12T10:54:34.121Z,65.11
2022-08-12T10:55:31.521Z,65.42
2022-08-12T10:56:34.598Z,65.16
2022-08-12T10:58:15.559Z,65.64
2022-08-12T10:58:32.505Z,64.40
2022-08-12T11:00:29.079Z,64.83
2022-08-12T11:00:35.582Z,67.72
2022-08-12T11:04:16.847Z,66.67
2022-08-12T11:04:27.370Z,64.15
2022-08-12T11:04:32.101Z,65.15
2022-08-12T11:04:45.292Z,64.70
2022-08-12T11:07:06.571Z,63.63
2022-08-12T11:07:08.653Z,64.25
2022-08-12T11:08:35.971Z,64.38
2022-08-12T11:08:42.934Z,62.64
2022-08-12T11:09:42.038Z,62.69
2022-08-12T11:10:33.074Z,62.41
2022-08-12T11:12:35.094Z,62.54
2022-08-12T11:12:55.346Z,62.60
2022-08-12T11:13:45.752Z,61.77
2022-08-12T11:14:49.357Z,64.21
2022-08-12T11:16:02.914Z,65.23
2022-08-12T11:16:31.362Z,62.95
2022-08-12T11:17:52.808Z,62.24
2022-08-12T11:18:32.344Z,64.40
2022-08-12T11:19:31.332Z,67.24
2022-08-12T11:20:35.131Z,69.27
2022-08-12T11:21:58.273Z,68.66
2022-08-12T11:22:35.036Z,66.67
2022-08-12T11:23:36.849Z,64.07
2022-08-12T11:24:35.479Z,64.31
2022-08-12T11:25:42.293Z,61.27
2022-08-12T11:26:34.056Z,63.59
2022-08-12T11:27:31.375Z,62.27
2022-08-12T11:28:33.290Z,65.21
2022-08-12T11:30:02.529Z,63.87
2022-08-12T11:30:32.247Z,65.03
2022-08-12T11:31:55.988Z,60.72
2022-08-12T11:32:39.114Z,66.15
2022-08-12T11:34:04.544Z,64.62
2022-08-12T11:34:51.882Z,65.72
2022-08-12T11:35:32.213Z,65.02
2022-08-12T11:36:31.204Z,62.02
2022-08-12T11:37:31.160Z,63.13
2022-08-12T11:38:32.172Z,61.84
2022-08-12T11:40:03.035Z,64.51
2022-08-12T11:40:32.132Z,63.50
2022-08-12T11:41:32.900Z,62.36
2022-08-12T11:42:46.047Z,63.19
2022-08-12T11:43:32.216Z,62.47
2022-08-12T11:44:36.644Z,61.66
2022-08-12T11:45:38.962Z,62.30
2022-08-12T11:46:32.109Z,63.17
2022-08-12T11:47:31.151Z,62.58
2022-08-12T11:48:51.530Z,62.47
2022-08-12T11:49:32.840Z,62.65
2022-08-12T11:50:32.435Z,61.61
2022-08-12T11:51:36.468Z,66.96
2022-08-12T11:52:55.844Z,65.45
2022-08-12T11:53:59.000Z,66.16
2022-08-12T11:54:32.081Z,67.29
2022-08-12T11:55:31.036Z,65.21
2022-08-12T11:56:38.605Z,62.83
2022-08-12T11:58:07.494Z,65.51
2022-08-12T11:59:08.459Z,64.23
2022-08-12T12:02:02.015Z,66.98
2022-08-12T12:02:32.076Z,70.79
2022-08-12T12:03:41.580Z,66.71
2022-08-12T12:04:32.084Z,64.19
2022-08-12T12:05:41.945Z,64.57
2022-08-12T12:06:31.936Z,63.14
2022-08-12T12:08:36.024Z,63.03
2022-08-12T12:08:37.971Z,62.11
2022-08-12T12:09:31.956Z,62.53
2022-08-12T12:10:31.908Z,61.74
2022-08-12T12:11:48.646Z,63.87
2022-08-12T12:12:31.934Z,61.79
2022-08-12T12:14:07.444Z,63.23
2022-08-12T12:14:38.104Z,63.47
2022-08-12T12:15:40.659Z,62.75
2022-08-12T12:16:33.514Z,63.65
2022-08-12T12:17:38.198Z,64.10
2022-08-12T12:18:31.897Z,64.80
2022-08-12T12:19:39.897Z,65.07
2022-08-12T12:20:32.871Z,65.23
2022-08-12T12:21:47.376Z,63.31
2022-08-12T12:22:31.873Z,64.01
2022-08-12T12:23:31.683Z,64.44
2022-08-12T12:24:30.823Z,64.16
2022-08-12T12:25:59.465Z,63.95
2022-08-12T12:26:35.382Z,64.36
2022-08-12T12:27:37.615Z,65.83
2022-08-12T12:28:37.710Z,64.85
2022-08-12T12:30:19.804Z,65.25
2022-08-12T12:30:31.771Z,66.09
2022-08-12T12:32:09.429Z,63.06
2022-08-12T12:32:31.752Z,64.41
2022-08-12T12:33:56.892Z,64.13
2022-08-12T12:34:32.718Z,61.75
2022-08-12T12:36:18.270Z,64.48
2022-08-12T12:36:31.721Z,65.78
2022-08-12T12:38:04.463Z,65.95
2022-08-12T12:38:31.716Z,62.77
2022-08-12T12:39:30.730Z,64.63
2022-08-12T12:40:31.702Z,62.99
2022-08-12T12:42:43.994Z,61.63
2022-08-12T12:42:52.250Z,62.25
2022-08-12T12:43:42.935Z,63.33
2022-08-12T12:44:41.813Z,65.01
2022-08-12T12:45:32.423Z,62.93
2022-08-12T12:46:30.652Z,62.77
2022-08-12T12:47:30.644Z,61.96
2022-08-12T12:48:30.643Z,62.99
2022-08-12T12:49:30.638Z,63.44
2022-08-12T12:50:35.190Z,63.50
2022-08-12T12:51:58.125Z,62.84
2022-08-12T12:52:31.587Z,63.30
2022-08-12T12:54:08.062Z,62.73
2022-08-12T12:54:31.568Z,62.45
2022-08-12T12:55:32.647Z,66.47
2022-08-12T12:56:34.401Z,62.33
2022-08-12T12:57:36.175Z,63.05